createdAt,value
2023-05-05T00:00:58.644Z,98070.96
2023-05-05T00:04:01.648Z,98066.25
2023-05-05T00:07:04.548Z,98063.61
2023-05-05T00:10:07.685Z,98061.33
2023-05-05T00:13:11.451Z,98066.20
2023-05-05T00:16:14.631Z,98064.23
2023-05-05T00:19:17.423Z,98060.45
2023-05-05T00:22:20.382Z,98054.96
2023-05-05T00:25:23.243Z,98052.07
2023-05-05T00:28:26.077Z,98051.52
2023-05-05T00:31:29.183Z,98047.34
2023-05-05T00:34:32.058Z,98041.69
2023-05-05T00:37:34.978Z,98040.18
2023-05-05T00:40:38.317Z,98040.89
2023-05-05T00:43:41.073Z,98036.96
2023-05-05T00:46:44.112Z,98037.86
2023-05-05T00:49:47.185Z,98038.44
2023-05-05T00:52:51.069Z,98035.34
2023-05-05T00:55:54.152Z,98036.73
2023-05-05T00:58:56.982Z,98035.30
2023-05-05T01:02:00.118Z,98038.04
2023-05-05T01:05:04.327Z,98038.27
2023-05-05T01:08:26.809Z,98041.84
2023-05-05T01:11:38.917Z,98039.09
2023-05-05T01:14:48.163Z,98034.11
2023-05-05T01:17:58.802Z,98036.80
2023-05-05T01:21:29.498Z,98036.27
2023-05-05T01:25:02.335Z,98040.64
2023-05-05T01:29:04.216Z,98040.00
2023-05-05T01:32:11.763Z,98035.44
2023-05-05T01:35:22.160Z,98040.58
2023-05-05T01:38:32.518Z,98039.98
2023-05-05T01:41:42.641Z,98039.83
2023-05-05T01:44:47.680Z,98041.78
2023-05-05T01:47:52.737Z,98041.82
2023-05-05T01:50:56.115Z,98038.58
2023-05-05T01:54:07.807Z,98039.73
2023-05-05T01:57:12.932Z,98039.65
2023-05-05T02:00:18.092Z,98040.82
2023-05-05T02:03:22.967Z,98046.02
2023-05-05T02:06:30.019Z,98044.84
2023-05-05T02:09:34.127Z,98032.67
2023-05-05T02:12:37.632Z,98029.24
2023-05-05T02:15:42.154Z,98031.21
2023-05-05T02:18:46.374Z,98036.20
2023-05-05T02:21:49.218Z,98035.64
2023-05-05T02:24:52.432Z,98034.27
2023-05-05T02:27:59.709Z,98028.08
2023-05-05T02:31:06.089Z,98026.91
2023-05-05T02:34:09.318Z,98030.70
2023-05-05T02:37:18.093Z,98033.70
2023-05-05T02:40:24.540Z,98028.42
2023-05-05T02:43:29.848Z,98028.52
2023-05-05T02:46:32.831Z,98029.94
2023-05-05T02:49:35.654Z,98024.06
2023-05-05T02:52:38.632Z,98022.93
2023-05-05T02:55:57.508Z,98020.34
2023-05-05T02:59:09.123Z,98017.90
2023-05-05T03:02:20.745Z,98020.30
2023-05-05T03:05:28.629Z,98020.98
2023-05-05T03:08:43.132Z,98016.41
2023-05-05T03:12:01.470Z,98015.70
2023-05-05T03:15:09.377Z,98015.41
2023-05-05T03:18:13.248Z,98017.94
2023-05-05T03:21:16.611Z,98017.11
2023-05-05T03:24:20.815Z,98020.49
2023-05-05T03:27:23.633Z,98025.50
2023-05-05T03:30:26.540Z,98018.48
2023-05-05T03:33:29.330Z,98019.27
2023-05-05T03:36:32.248Z,98020.89
2023-05-05T03:39:35.022Z,98022.39
2023-05-05T03:42:37.887Z,98021.89
2023-05-05T03:45:40.761Z,98022.63
2023-05-05T03:48:43.734Z,98024.70
2023-05-05T03:51:47.389Z,98031.15
2023-05-05T03:54:50.286Z,98037.48
2023-05-05T03:57:53.222Z,98034.17
2023-05-05T04:00:56.005Z,98031.36
2023-05-05T04:03:58.739Z,98034.94
2023-05-05T04:07:01.760Z,98035.88
2023-05-05T04:10:04.930Z,98034.86
2023-05-05T04:13:08.876Z,98039.36
2023-05-05T04:16:12.197Z,98043.68
2023-05-05T04:19:15.041Z,98041.05
2023-05-05T04:22:17.818Z,98043.23
2023-05-05T04:25:20.629Z,98040.58
2023-05-05T04:28:23.388Z,98039.74
2023-05-05T04:31:26.173Z,98036.15
2023-05-05T04:34:29.121Z,98040.42
2023-05-05T04:37:32.069Z,98035.45
2023-05-05T04:40:38.832Z,98038.27
2023-05-05T04:43:41.568Z,98037.89
2023-05-05T04:46:44.523Z,98044.58
2023-05-05T04:49:47.381Z,98046.05
2023-05-05T04:52:52.559Z,98052.52
2023-05-05T04:55:55.696Z,98061.81
2023-05-05T04:58:58.623Z,98070.20
2023-05-05T05:02:01.745Z,98068.12
2023-05-05T05:05:04.886Z,98071.11
2023-05-05T05:08:07.659Z,98071.41
2023-05-05T05:11:10.643Z,98066.82
2023-05-05T05:14:13.456Z,98067.23
2023-05-05T05:17:16.454Z,98064.15
2023-05-05T05:20:19.773Z,98068.19
2023-05-05T05:23:22.509Z,98064.81
2023-05-05T05:26:25.409Z,98071.62
2023-05-05T05:29:28.260Z,98075.35
2023-05-05T05:32:31.149Z,98080.21
2023-05-05T05:35:33.930Z,98082.80
2023-05-05T05:38:36.767Z,98082.23
2023-05-05T05:41:39.543Z,98079.72
2023-05-05T05:44:42.367Z,98081.27
2023-05-05T05:47:45.225Z,98082.19
2023-05-05T05:50:48.032Z,98086.20
2023-05-05T05:53:51.968Z,98087.92
2023-05-05T05:56:54.777Z,98088.42
2023-05-05T05:59:59.688Z,98083.23
2023-05-05T06:03:04.137Z,98082.16
2023-05-05T06:06:07.630Z,98083.96
2023-05-05T06:09:10.473Z,98084.15
2023-05-05T06:12:13.212Z,98083.28
2023-05-05T06:15:16.068Z,98080.27
2023-05-05T06:18:18.994Z,98080.58
2023-05-05T06:21:21.769Z,98079.46
2023-05-05T06:24:24.595Z,98079.83
2023-05-05T06:27:27.410Z,98075.98
2023-05-05T06:30:30.173Z,98077.91
2023-05-05T06:33:32.969Z,98081.42
2023-05-05T06:36:35.838Z,98084.77
2023-05-05T06:39:38.824Z,98085.52
2023-05-05T06:42:41.800Z,98084.19
2023-05-05T06:45:44.654Z,98083.89
2023-05-05T06:48:47.671Z,98086.94
2023-05-05T06:51:50.461Z,98084.73
2023-05-05T06:54:53.350Z,98086.33
2023-05-05T06:57:56.113Z,98086.27
2023-05-05T07:00:59.180Z,98086.30
2023-05-05T07:04:02.134Z,98082.66
2023-05-05T07:07:04.941Z,98083.48
2023-05-05T07:10:09.812Z,98084.05
2023-05-05T07:13:15.634Z,98083.40
2023-05-05T07:16:18.380Z,98083.44
2023-05-05T07:19:21.153Z,98083.99
2023-05-05T07:22:23.920Z,98081.09
2023-05-05T07:25:26.816Z,98079.33
2023-05-05T07:28:29.583Z,98078.98
2023-05-05T07:31:32.439Z,98079.00
2023-05-05T07:34:37.411Z,98073.64
2023-05-05T07:37:40.286Z,98071.17
2023-05-05T07:40:43.069Z,98067.44
2023-05-05T07:43:46.196Z,98068.30
2023-05-05T07:46:48.997Z,98071.38
2023-05-05T07:49:52.104Z,98073.04
2023-05-05T07:53:02.353Z,98069.80
2023-05-05T07:56:13.245Z,98067.96
2023-05-05T07:59:16.072Z,98064.42
2023-05-05T08:02:19.099Z,98063.47
2023-05-05T08:05:22.006Z,98062.29
2023-05-05T08:08:25.205Z,98062.61
2023-05-05T08:11:29.646Z,98064.73
2023-05-05T08:14:33.193Z,98059.67
2023-05-05T08:17:50.407Z,98070.80
2023-05-05T08:20:54.772Z,98068.30
2023-05-05T08:23:57.590Z,98068.21
2023-05-05T08:27:00.863Z,98069.90
2023-05-05T08:30:04.495Z,98067.39
2023-05-05T08:33:07.369Z,98066.75
2023-05-05T08:36:10.406Z,98060.33
2023-05-05T08:39:13.274Z,98063.79
2023-05-05T08:42:28.926Z,98063.22
2023-05-05T08:45:38.572Z,98064.19
2023-05-05T08:48:42.735Z,98060.99
2023-05-05T08:51:46.747Z,98056.91
2023-05-05T08:55:05.546Z,98056.81
2023-05-05T08:58:09.955Z,98054.48
2023-05-05T09:01:14.294Z,98053.25
2023-05-05T09:04:19.195Z,98052.17
2023-05-05T09:07:22.502Z,98052.07
2023-05-05T09:10:26.578Z,98052.88
2023-05-05T09:13:31.129Z,98049.66
2023-05-05T09:16:34.054Z,98048.83
2023-05-05T09:20:04.532Z,98046.09
2023-05-05T09:23:14.525Z,98050.19
2023-05-05T09:26:17.326Z,98048.01
2023-05-05T09:29:21.565Z,98043.62
2023-05-05T09:32:25.182Z,98044.05
2023-05-05T09:35:28.658Z,98046.93
2023-05-05T09:38:31.555Z,98044.38
2023-05-05T09:41:39.354Z,98040.35
2023-05-05T09:44:42.382Z,98041.79
2023-05-05T09:47:49.182Z,98037.86
2023-05-05T09:50:52.609Z,98043.98
2023-05-05T09:53:55.419Z,98043.83
2023-05-05T09:56:58.304Z,98046.33
2023-05-05T10:00:02.665Z,98040.43
2023-05-05T10:03:05.581Z,98039.17
2023-05-05T10:06:08.408Z,98042.59
2023-05-05T10:09:11.295Z,98038.19
2023-05-05T10:12:14.157Z,98040.91
2023-05-05T10:15:17.908Z,98036.20
2023-05-05T10:18:28.743Z,98033.96
2023-05-05T10:21:34.388Z,98035.48
2023-05-05T10:24:47.122Z,98037.22
2023-05-05T10:27:53.166Z,98036.64
2023-05-05T10:30:58.519Z,98035.59
2023-05-05T10:34:04.274Z,98034.08
2023-05-05T10:37:07.826Z,98032.19
2023-05-05T10:40:11.899Z,98028.98
2023-05-05T10:43:15.245Z,98030.55
2023-05-05T10:46:18.262Z,98032.77
2023-05-05T10:49:39.972Z,98033.73
2023-05-05T10:52:54.899Z,98031.13
2023-05-05T10:56:10.540Z,98022.82
2023-05-05T10:59:39.046Z,98024.48
2023-05-05T11:02:42.055Z,98020.09
2023-05-05T11:06:03.990Z,98019.98
2023-05-05T11:09:29.247Z,98013.89
2023-05-05T11:12:35.494Z,98011.24
2023-05-05T11:15:39.810Z,98009.29
2023-05-05T11:18:45.719Z,98002.77
2023-05-05T11:22:01.749Z,98005.81
2023-05-05T11:25:42.218Z,98005.52
2023-05-05T11:29:14.403Z,98004.06
2023-05-05T11:32:17.224Z,98003.41
2023-05-05T11:35:20.187Z,97996.10
2023-05-05T11:38:58.649Z,97995.98
2023-05-05T11:42:24.617Z,97992.25
2023-05-05T11:45:27.518Z,97987.81
2023-05-05T11:48:30.329Z,97986.63
2023-05-05T11:51:33.606Z,97985.44
2023-05-05T11:54:38.455Z,97980.71
2023-05-05T11:57:41.268Z,97979.99
2023-05-05T12:00:44.105Z,97978.41
2023-05-05T12:03:47.198Z,97975.20
2023-05-05T12:06:50.300Z,97977.31
2023-05-05T12:09:53.893Z,97973.46
2023-05-05T12:12:56.761Z,97973.77
2023-05-05T12:16:16.987Z,97976.73
2023-05-05T12:19:19.919Z,97975.20
2023-05-05T12:22:24.773Z,97975.36
2023-05-05T12:25:35.740Z,97971.89
2023-05-05T12:28:48.506Z,97973.00
2023-05-05T12:31:51.652Z,97969.35
2023-05-05T12:34:57.363Z,97964.03
2023-05-05T12:38:00.563Z,97959.58
2023-05-05T12:41:03.769Z,97957.12
2023-05-05T12:44:06.827Z,97957.48
2023-05-05T12:47:11.251Z,97952.39
2023-05-05T12:50:14.083Z,97947.08
2023-05-05T12:53:24.333Z,97946.91
2023-05-05T12:56:44.255Z,97946.64
2023-05-05T12:59:47.297Z,97945.30
2023-05-05T13:02:50.165Z,97940.14
2023-05-05T13:05:52.982Z,97935.31
2023-05-05T13:08:57.219Z,97926.83
2023-05-05T13:12:00.234Z,97928.61
2023-05-05T13:15:03.585Z,97921.84
2023-05-05T13:18:06.574Z,97918.96
2023-05-05T13:21:09.444Z,97915.27
2023-05-05T13:24:28.142Z,97913.13
2023-05-05T13:27:35.318Z,97912.29
2023-05-05T13:30:38.305Z,97906.89
2023-05-05T13:33:41.782Z,97903.91
2023-05-05T13:36:44.764Z,97901.96
2023-05-05T13:39:47.519Z,97898.85
2023-05-05T13:42:50.340Z,97895.88
2023-05-05T13:46:05.561Z,97896.17
2023-05-05T13:49:11.980Z,97892.27
2023-05-05T13:52:15.080Z,97891.02
2023-05-05T13:55:18.187Z,97885.70
2023-05-05T13:58:21.140Z,97877.02
2023-05-05T14:01:24.079Z,97881.77
2023-05-05T14:04:26.898Z,97876.01
2023-05-05T14:07:29.708Z,97870.75
2023-05-05T14:10:32.480Z,97862.68
2023-05-05T14:13:35.226Z,97858.80
2023-05-05T14:16:38.007Z,97855.73
2023-05-05T14:19:40.986Z,97854.52
2023-05-05T14:22:43.914Z,97848.75
2023-05-05T14:25:46.845Z,97853.77
2023-05-05T14:28:50.156Z,97854.75
2023-05-05T14:31:53.098Z,97851.81
2023-05-05T14:34:56.467Z,97852.64
2023-05-05T14:37:59.406Z,97853.28
2023-05-05T14:41:02.163Z,97854.59
2023-05-05T14:44:05.107Z,97852.92
2023-05-05T14:47:07.957Z,97853.04
2023-05-05T14:50:11.127Z,97851.65
2023-05-05T14:53:13.867Z,97851.53
2023-05-05T14:56:17.240Z,97851.69
2023-05-05T14:59:20.110Z,97850.40
2023-05-05T15:02:22.969Z,97850.35
2023-05-05T15:05:25.919Z,97850.39
2023-05-05T15:08:28.829Z,97845.25
2023-05-05T15:11:31.561Z,97845.36
2023-05-05T15:14:34.401Z,97844.99
2023-05-05T15:17:38.869Z,97844.07
2023-05-05T15:20:42.054Z,97843.38
2023-05-05T15:23:45.120Z,97841.86
2023-05-05T15:26:47.900Z,97841.81
2023-05-05T15:29:50.687Z,97845.00
2023-05-05T15:32:54.196Z,97843.63
2023-05-05T15:35:57.125Z,97849.05
2023-05-05T15:38:59.871Z,97845.59
2023-05-05T15:42:05.752Z,97840.02
2023-05-05T15:45:12.576Z,97839.20
2023-05-05T15:48:15.446Z,97842.56
2023-05-05T15:51:18.389Z,97838.30
2023-05-05T15:54:21.237Z,97831.63
2023-05-05T15:57:24.060Z,97833.70
2023-05-05T16:00:27.057Z,97828.56
2023-05-05T16:03:29.825Z,97828.41
2023-05-05T16:06:32.837Z,97826.45
2023-05-05T16:09:35.762Z,97820.55
2023-05-05T16:12:38.594Z,97824.61
2023-05-05T16:15:41.380Z,97812.88
2023-05-05T16:18:44.220Z,97814.63
2023-05-05T16:21:47.100Z,97815.21
2023-05-05T16:24:49.862Z,97816.15
2023-05-05T16:27:53.841Z,97818.49
2023-05-05T16:30:56.684Z,97817.64
2023-05-05T16:34:00.233Z,97819.73
2023-05-05T16:37:03.519Z,97816.29
2023-05-05T16:40:06.895Z,97818.30
2023-05-05T16:43:09.662Z,97815.63
2023-05-05T16:46:12.658Z,97812.42
2023-05-05T16:49:15.461Z,97817.05
2023-05-05T16:52:18.818Z,97816.64
2023-05-05T16:55:21.687Z,97816.36
2023-05-05T16:58:24.571Z,97814.61
2023-05-05T17:01:27.512Z,97816.23
2023-05-05T17:04:30.391Z,97813.66
2023-05-05T17:07:33.230Z,97813.31
2023-05-05T17:10:36.379Z,97813.98
2023-05-05T17:13:39.257Z,97819.17
2023-05-05T17:16:42.258Z,97819.23
2023-05-05T17:19:45.486Z,97818.80
2023-05-05T17:22:48.327Z,97815.01
2023-05-05T17:25:51.653Z,97818.15
2023-05-05T17:28:54.402Z,97822.50
2023-05-05T17:31:57.265Z,97826.63
2023-05-05T17:35:00.005Z,97831.11
2023-05-05T17:38:02.774Z,97832.23
2023-05-05T17:41:06.507Z,97841.60
2023-05-05T17:44:09.368Z,97840.85
2023-05-05T17:47:12.140Z,97835.19
2023-05-05T17:50:14.975Z,97836.57
2023-05-05T17:53:17.855Z,97834.77
2023-05-05T17:56:20.622Z,97835.30
2023-05-05T17:59:23.524Z,97843.58
2023-05-05T18:02:26.429Z,97845.67
2023-05-05T18:05:30.427Z,97847.91
2023-05-05T18:08:33.208Z,97844.85
2023-05-05T18:11:35.996Z,97842.23
2023-05-05T18:14:38.865Z,97842.59
2023-05-05T18:17:41.651Z,97844.29
2023-05-05T18:20:44.486Z,97851.76
2023-05-05T18:23:47.424Z,97850.67
2023-05-05T18:26:51.762Z,97856.94
2023-05-05T18:29:55.322Z,97856.25
2023-05-05T18:32:58.244Z,97859.89
2023-05-05T18:36:03.338Z,97860.47
2023-05-05T18:39:06.203Z,97862.97
2023-05-05T18:42:08.998Z,97864.95
2023-05-05T18:45:12.058Z,97864.89
2023-05-05T18:48:14.845Z,97863.48
2023-05-05T18:51:17.627Z,97865.75
2023-05-05T18:54:22.094Z,97863.88
2023-05-05T18:57:24.902Z,97858.67
2023-05-05T19:00:27.684Z,97853.05
2023-05-05T19:03:30.654Z,97855.09
2023-05-05T19:06:33.426Z,97855.23
2023-05-05T19:09:36.201Z,97858.17
2023-05-05T19:12:39.099Z,97855.30
2023-05-05T19:15:41.993Z,97853.64
2023-05-05T19:18:44.867Z,97847.72
2023-05-05T19:21:47.720Z,97848.10
2023-05-05T19:24:50.707Z,97854.52
2023-05-05T19:27:53.496Z,97853.54
2023-05-05T19:30:56.314Z,97851.15
2023-05-05T19:34:04.720Z,97853.54
2023-05-05T19:37:07.574Z,97853.65
2023-05-05T19:40:11.087Z,97851.80
2023-05-05T19:43:14.443Z,97850.05
2023-05-05T19:46:17.419Z,97846.34
2023-05-05T19:49:20.262Z,97841.51
2023-05-05T19:52:23.022Z,97838.14
2023-05-05T19:55:25.879Z,97838.66
2023-05-05T19:58:28.920Z,97836.06
2023-05-05T20:01:33.173Z,97833.15
2023-05-05T20:04:36.027Z,97840.50
2023-05-05T20:07:38.889Z,97837.59
2023-05-05T20:10:41.761Z,97835.25
2023-05-05T20:13:44.674Z,97832.40
2023-05-05T20:16:48.044Z,97831.02
2023-05-05T20:19:50.964Z,97823.64
2023-05-05T20:22:53.768Z,97820.71
2023-05-05T20:25:56.822Z,97815.20
2023-05-05T20:28:59.678Z,97818.29
2023-05-05T20:32:02.468Z,97823.38
2023-05-05T20:35:06.203Z,97821.00
2023-05-05T20:38:09.858Z,97818.20
2023-05-05T20:41:12.620Z,97819.14
2023-05-05T20:44:15.666Z,97820.71
2023-05-05T20:47:18.524Z,97821.39
2023-05-05T20:50:21.478Z,97824.48
2023-05-05T20:53:25.506Z,97823.48
2023-05-05T20:56:28.529Z,97824.02
2023-05-05T20:59:32.230Z,97825.86
2023-05-05T21:02:35.176Z,97824.51
2023-05-05T21:05:39.609Z,97821.48
2023-05-05T21:08:42.400Z,97822.10
2023-05-05T21:11:45.167Z,97818.49
2023-05-05T21:14:47.958Z,97820.83
2023-05-05T21:17:51.358Z,97817.70
2023-05-05T21:20:54.217Z,97814.38
2023-05-05T21:23:57.704Z,97809.70
2023-05-05T21:27:00.610Z,97807.70
2023-05-05T21:30:03.586Z,97809.18
2023-05-05T21:33:06.438Z,97803.34
2023-05-05T21:36:09.411Z,97799.17
2023-05-05T21:39:12.201Z,97795.61
2023-05-05T21:42:15.399Z,97799.20
2023-05-05T21:45:18.226Z,97794.73
2023-05-05T21:48:21.149Z,97795.30
2023-05-05T21:51:23.989Z,97794.54
2023-05-05T21:54:27.068Z,97791.39
2023-05-05T21:57:30.460Z,97791.09
2023-05-05T22:00:33.266Z,97794.06
2023-05-05T22:03:36.645Z,97788.52
2023-05-05T22:06:39.568Z,97788.80
2023-05-05T22:09:43.172Z,97794.47
2023-05-05T22:12:46.019Z,97789.34
2023-05-05T22:15:49.038Z,97788.83
2023-05-05T22:18:52.153Z,97789.34
2023-05-05T22:21:54.983Z,97787.98
2023-05-05T22:24:57.835Z,97788.09
2023-05-05T22:28:00.682Z,97785.80
2023-05-05T22:31:03.629Z,97783.30
2023-05-05T22:34:06.620Z,97784.22
2023-05-05T22:37:09.662Z,97777.13
2023-05-05T22:40:13.031Z,97772.48
2023-05-05T22:43:15.901Z,97766.72
2023-05-05T22:46:18.728Z,97764.95
2023-05-05T22:49:22.886Z,97759.88
2023-05-05T22:52:28.292Z,97755.42
2023-05-05T22:55:31.225Z,97756.86
2023-05-05T22:58:34.255Z,97760.70
2023-05-05T23:01:37.298Z,97760.14
2023-05-05T23:04:40.318Z,97759.14
2023-05-05T23:07:43.179Z,97754.42
2023-05-05T23:10:46.072Z,97750.81
2023-05-05T23:13:48.855Z,97748.23
2023-05-05T23:16:51.724Z,97749.58
2023-05-05T23:19:54.713Z,97746.42
2023-05-05T23:22:57.432Z,97745.24
2023-05-05T23:26:00.266Z,97743.13
2023-05-05T23:29:03.258Z,97740.48
2023-05-05T23:32:06.528Z,97740.80
2023-05-05T23:35:09.965Z,97748.19
2023-05-05T23:38:13.181Z,97751.33
2023-05-05T23:41:15.982Z,97755.29
2023-05-05T23:44:18.780Z,97756.34
2023-05-05T23:47:21.608Z,97756.25
2023-05-05T23:50:25.895Z,97758.70
2023-05-05T23:53:28.703Z,97749.45
2023-05-05T23:56:31.952Z,97750.13
2023-05-05T23:59:34.890Z,97751.36
